»·PEaware :: CPZ5693 KPHX-KLAX

CPZ5693 :: KPHX-KLAX

FLIGHT INFORMATION

Flight Status: Arrived
Operator:
Compass Airlines
More flights by this operator :: More flights under this callsign
Pilot: Nate M. (12976)
Aircraft: Unknown
(E75S)
More flights by this aircraft type
Origin: KPHX Phoenix Sky Harbor Intl
United States
Destination: KLAX Los Angeles Intl
United States
More flights between these airports :: More routes between these airports
Route: +KEENS1 MESSI ESTWD HLYWD1
File this flight plan on PilotEdge
Remarks:
Altitude:
(Current/Filed)
28,000ft
Speed:
(Current/Filed)
440kts
Departed: 25-Apr-18 05:28 PM
Arrived: 25-Apr-18 06:20 PM
Distance/Time
Traveled:
321nm/0:52
Distance/Time
To Go:
Arrived

Flight Plot

Page will automatically refresh every two minutes.

Flight plan parsing failed; only flown route is shown


Map Options




Map Legend


Flown Route
Filed Route
Departure Airport
Arrival Airport
Navaid (VOR, NDB)
Fix

Horizontal Profiles

Position Reports

Time Latitude Longitude Heading Altitude Ground
Speed
25-Apr-18 16:46 33.436500 -112.009348 90 1126ft 0kts
25-Apr-18 16:47 33.436500 -112.009348 90 1126ft 0kts
25-Apr-18 16:48 33.436500 -112.009348 90 1126ft 0kts
25-Apr-18 16:49 33.436500 -112.009348 90 1126ft 0kts
25-Apr-18 16:50 33.436500 -112.009348 90 1126ft 0kts
25-Apr-18 16:51 33.436500 -112.009348 90 1126ft 0kts
25-Apr-18 16:52 33.436500 -112.009348 90 1126ft 0kts
25-Apr-18 16:53 33.436500 -112.009348 90 1126ft 0kts
25-Apr-18 16:54 33.436500 -112.009348 90 1126ft 0kts
25-Apr-18 16:55 33.436500 -112.009348 90 1126ft 0kts
25-Apr-18 16:56 33.436500 -112.009348 90 1126ft 0kts
25-Apr-18 16:57 33.436500 -112.009348 90 1126ft 0kts
25-Apr-18 16:58 33.436500 -112.009348 90 1126ft 0kts
25-Apr-18 16:59 33.436500 -112.009348 90 1126ft 0kts
25-Apr-18 17:00 33.436500 -112.009348 90 1126ft 0kts
25-Apr-18 17:01 33.436500 -112.009348 90 1126ft 0kts
25-Apr-18 17:02 33.436500 -112.009348 90 1126ft 0kts
25-Apr-18 17:03 33.436500 -112.009348 90 1126ft 0kts
25-Apr-18 17:04 33.436500 -112.009348 90 1126ft 0kts
25-Apr-18 17:05 33.436500 -112.009348 90 1126ft 0kts
25-Apr-18 17:06 33.436500 -112.009348 90 1126ft 0kts
25-Apr-18 17:07 33.436500 -112.009348 90 1126ft 0kts
25-Apr-18 17:08 33.436500 -112.009348 90 1126ft 0kts
25-Apr-18 17:09 33.436500 -112.009348 90 1126ft 0kts
25-Apr-18 17:10 33.436500 -112.009348 90 1126ft 0kts
25-Apr-18 17:11 33.436500 -112.009348 90 1126ft 0kts
25-Apr-18 17:12 33.436500 -112.009348 90 1126ft 0kts
25-Apr-18 17:13 33.436500 -112.009348 90 1126ft 0kts
25-Apr-18 17:14 33.436500 -112.009348 90 1126ft 0kts
25-Apr-18 17:15 33.436500 -112.009348 90 1126ft 0kts
25-Apr-18 17:16 33.436500 -112.009348 90 1126ft 0kts
25-Apr-18 17:17 33.436500 -112.009348 90 1126ft 0kts
25-Apr-18 17:18 33.436500 -112.009348 90 1126ft 0kts
25-Apr-18 17:19 33.436500 -112.009348 90 1126ft 0kts
25-Apr-18 17:20 33.436500 -112.009348 90 1126ft 0kts
25-Apr-18 17:21 33.438154 -112.008973 5 1126ft 11kts
25-Apr-18 17:22 33.439014 -112.004750 89 1132ft 38kts
25-Apr-18 17:23 33.439011 -111.996102 77 1141ft 22kts
25-Apr-18 17:24 33.439896 -111.992366 28 1142ft 0kts
25-Apr-18 17:25 33.439896 -111.992366 28 1142ft 0kts
25-Apr-18 17:26 33.440610 -111.992289 341 1144ft 17kts
25-Apr-18 17:27 33.440998 -112.023770 268 1852ft 185kts
25-Apr-18 17:28 33.420991 -112.083419 247 4331ft 269kts
25-Apr-18 17:29 33.394595 -112.168898 251 7310ft 269kts
25-Apr-18 17:30 33.399214 -112.260170 279 10359ft 325kts
25-Apr-18 17:31 33.417464 -112.384998 280 13453ft 432kts
25-Apr-18 17:32 33.439911 -112.533453 280 16959ft 459kts
25-Apr-18 17:33 33.450778 -112.674933 271 20855ft 415kts
25-Apr-18 17:34 33.458531 -112.806680 287 24779ft 392kts
25-Apr-18 17:35 33.497607 -112.926730 292 27959ft 403kts
25-Apr-18 17:36 33.544961 -113.063052 292 28006ft 473kts
25-Apr-18 17:37 33.596426 -113.211082 292 28000ft 485kts
25-Apr-18 17:38 33.648136 -113.360467 292 28000ft 485kts
25-Apr-18 17:39 33.699819 -113.510494 292 28000ft 489kts
25-Apr-18 17:40 33.751564 -113.661274 292 27999ft 489kts
25-Apr-18 17:41 33.803270 -113.811743 291 27999ft 489kts
25-Apr-18 17:42 33.854291 -113.963201 292 28000ft 489kts
25-Apr-18 17:43 33.903080 -114.115740 284 27989ft 488kts
25-Apr-18 17:44 33.931248 -114.275228 281 27999ft 486kts
25-Apr-18 17:45 33.951768 -114.435837 276 27999ft 486kts
25-Apr-18 17:46 33.966330 -114.597369 276 27999ft 486kts
25-Apr-18 17:47 33.980711 -114.758893 276 27999ft 486kts
25-Apr-18 17:48 33.994616 -114.920901 275 28000ft 486kts
25-Apr-18 17:49 34.008201 -115.082802 275 28000ft 486kts
25-Apr-18 17:50 34.021542 -115.244349 275 28000ft 486kts
25-Apr-18 17:51 34.034742 -115.406825 275 28000ft 486kts
25-Apr-18 17:52 34.047729 -115.569358 275 28000ft 486kts
25-Apr-18 17:53 34.060747 -115.731255 275 27928ft 488kts
25-Apr-18 17:54 34.073462 -115.893398 275 25919ft 488kts
25-Apr-18 17:55 34.085846 -116.056160 275 24060ft 486kts
25-Apr-18 17:56 34.095689 -116.184263 271 24020ft 473kts
25-Apr-18 17:57 34.097146 -116.340734 259 23958ft 464kts
25-Apr-18 17:58 34.080542 -116.494554 259 23912ft 458kts
25-Apr-18 17:59 34.065275 -116.638285 259 23904ft 397kts
25-Apr-18 18:00 34.052575 -116.768035 258 23975ft 391kts
25-Apr-18 18:01 34.039310 -116.897191 257 24045ft 389kts
25-Apr-18 18:02 34.022804 -117.025626 257 22761ft 387kts
25-Apr-18 18:03 34.009063 -117.155470 259 19249ft 397kts
25-Apr-18 18:04 33.993576 -117.278009 256 15642ft 350kts
25-Apr-18 18:05 33.981286 -117.391033 262 12238ft 333kts
25-Apr-18 18:06 33.974651 -117.496544 277 11642ft 309kts
25-Apr-18 18:07 33.989909 -117.594052 279 10066ft 278kts
25-Apr-18 18:08 34.004392 -117.684187 270 9732ft 274kts
25-Apr-18 18:09 33.998477 -117.768367 260 8055ft 226kts
25-Apr-18 18:10 33.991384 -117.843006 260 7067ft 223kts
25-Apr-18 18:11 33.985403 -117.904331 261 5860ft 240kts
25-Apr-18 18:12 33.976932 -117.990420 261 5060ft 262kts
25-Apr-18 18:13 33.968819 -118.072344 261 5057ft 224kts
25-Apr-18 18:14 33.961508 -118.144797 261 3701ft 207kts
25-Apr-18 18:15 33.954610 -118.212998 261 2551ft 203kts
25-Apr-18 18:16 33.948043 -118.277362 262 1980ft 194kts
25-Apr-18 18:17 33.941777 -118.341356 263 1698ft 184kts
25-Apr-18 18:18 33.936610 -118.390158 261 109ft 132kts
25-Apr-18 18:19 33.934336 -118.402197 185 120ft 0kts

Navigation Log

Ident Type
Flight plan parsing failed, navigation log unavailable